Time;durP1;ratioP1;P1;durP2;ratioP2;P2;SDS_P1;SDS_P2;PMS_P1;PMS_P2;Temp;Humidity;BMP_temperature;BMP_pressure;BME280_temperature;BME280_humidity;BME280_pressure;Samples;Min_cycle;Max_cycle;Signal;HPM_P1;HPM_P2
2021/05/14 00:02:05;;;;;;;6.78;5.60;;;11.90;99.90;;;;;;5020629;28;20128;-74
2021/05/14 00:04:30;;;;;;;4.90;3.38;;;11.90;99.90;;;;;;5037144;28;20037;-75
2021/05/14 00:06:56;;;;;;;4.63;3.70;;;11.90;99.90;;;;;;5026633;28;20034;-75
2021/05/14 00:09:22;;;;;;;4.28;3.88;;;11.90;99.90;;;;;;5032953;28;20017;-74
2021/05/14 00:11:48;;;;;;;3.13;2.80;;;11.90;99.90;;;;;;5035621;28;20235;-74
2021/05/14 00:14:14;;;;;;;5.03;3.20;;;11.90;99.90;;;;;;5032884;28;20032;-74
2021/05/14 00:16:41;;;;;;;4.57;3.20;;;11.80;99.90;;;;;;5028993;28;20042;-75
2021/05/14 00:19:06;;;;;;;3.72;2.95;;;11.80;99.90;;;;;;5032574;28;20025;-75
2021/05/14 00:21:33;;;;;;;3.05;2.75;;;11.80;99.90;;;;;;5034321;28;20087;-75
2021/05/14 00:23:59;;;;;;;3.60;2.78;;;11.80;99.90;;;;;;5029291;28;20021;-75
2021/05/14 00:26:25;;;;;;;2.78;2.40;;;11.80;99.90;;;;;;5033381;28;20021;-74
2021/05/14 00:28:51;;;;;;;3.40;2.70;;;11.80;99.90;;;;;;5006264;28;20357;-74
2021/05/14 00:31:18;;;;;;;2.80;2.50;;;11.80;99.90;;;;;;5032012;28;20040;-74
2021/05/14 00:33:44;;;;;;;2.40;1.90;;;11.80;99.90;;;;;;5022917;28;20029;-75
2021/05/14 00:36:16;;;;;;;2.70;2.50;;;11.70;99.90;;;;;;5031217;28;20055;-74
2021/05/14 00:38:41;;;;;;;2.70;2.30;;;11.80;99.90;;;;;;5022533;28;20033;-74
2021/05/14 00:41:07;;;;;;;2.45;2.20;;;11.80;99.90;;;;;;5033074;28;20033;-74
2021/05/14 00:43:33;;;;;;;3.75;2.80;;;11.80;99.90;;;;;;5025021;28;20052;-74
2021/05/14 00:46:00;;;;;;;2.78;2.28;;;11.80;99.90;;;;;;5022976;28;20044;-74
2021/05/14 00:48:26;;;;;;;2.08;1.80;;;11.70;99.90;;;;;;5014861;28;20694;-74
2021/05/14 00:50:51;;;;;;;3.30;2.45;;;11.70;99.90;;;;;;5027204;28;20050;-74
2021/05/14 00:53:17;;;;;;;1.80;1.60;;;11.80;99.90;;;;;;5034649;28;20032;-75
2021/05/14 00:55:42;;;;;;;2.00;1.80;;;11.80;99.90;;;;;;5028963;28;20041;-75
2021/05/14 00:58:09;;;;;;;1.75;1.65;;;11.70;99.90;;;;;;5029253;28;20058;-75
2021/05/14 01:00:34;;;;;;;1.75;1.50;;;11.70;99.90;;;;;;5026540;28;20026;-75
2021/05/14 01:03:00;;;;;;;2.25;2.00;;;11.70;99.90;;;;;;5026324;28;20484;-76
2021/05/14 01:05:26;;;;;;;2.03;1.60;;;11.70;99.90;;;;;;5018043;28;20064;-76
2021/05/14 01:07:51;;;;;;;1.60;1.50;;;11.70;99.90;;;;;;5028828;28;20109;-75
2021/05/14 01:10:18;;;;;;;2.53;2.33;;;11.70;99.90;;;;;;5032255;28;20036;-75
2021/05/14 01:12:44;;;;;;;5.72;4.03;;;11.70;99.90;;;;;;5031241;28;20033;-75
2021/05/14 01:15:13;;;;;;;4.20;3.00;;;11.70;99.90;;;;;;5030368;28;20104;-76
2021/05/14 01:17:38;;;;;;;3.20;2.55;;;11.70;99.90;;;;;;5028924;28;20025;-76
2021/05/14 01:20:06;;;;;;;1.50;1.40;;;11.70;99.90;;;;;;5035164;28;20029;-74
2021/05/14 01:22:31;;;;;;;1.85;1.70;;;11.70;99.90;;;;;;5027636;28;20108;-75
2021/05/14 01:24:57;;;;;;;1.98;1.67;;;11.70;99.90;;;;;;5029600;28;20318;-76
2021/05/14 01:27:26;;;;;;;3.13;2.50;;;11.70;99.90;;;;;;5023200;28;20025;-73
2021/05/14 01:29:51;;;;;;;2.10;1.70;;;11.60;99.90;;;;;;5025227;28;20503;-75
2021/05/14 01:32:17;;;;;;;4.13;1.85;;;11.70;99.90;;;;;;5032083;28;20026;-74
2021/05/14 01:34:44;;;;;;;2.95;1.90;;;11.70;99.90;;;;;;5032849;28;20407;-75
2021/05/14 01:37:09;;;;;;;1.98;1.77;;;11.60;99.90;;;;;;5032394;28;20033;-74
2021/05/14 01:39:35;;;;;;;2.72;1.50;;;11.60;99.90;;;;;;5032516;28;20031;-75
2021/05/14 01:42:02;;;;;;;1.75;1.65;;;11.60;99.90;;;;;;5030307;28;20044;-75
2021/05/14 01:44:28;;;;;;;1.80;1.70;;;11.60;99.90;;;;;;5029466;28;20133;-74
2021/05/14 01:46:54;;;;;;;2.15;1.70;;;11.60;99.90;;;;;;5031321;28;20061;-75
2021/05/14 01:49:19;;;;;;;2.45;1.90;;;11.60;99.90;;;;;;5029252;28;20057;-75
2021/05/14 01:51:45;;;;;;;2.05;1.80;;;11.60;99.90;;;;;;5028970;28;20029;-75
2021/05/14 01:54:11;;;;;;;1.58;1.48;;;11.60;99.90;;;;;;5011744;28;20026;-76
2021/05/14 01:56:37;;;;;;;2.35;1.70;;;11.50;99.90;;;;;;5027797;28;20029;-75
2021/05/14 01:59:05;;;;;;;3.05;2.10;;;11.50;99.90;;;;;;5021794;28;20029;-75
2021/05/14 02:01:30;;;;;;;2.90;1.85;;;11.60;99.90;;;;;;5027967;28;20032;-74
2021/05/14 02:03:56;;;;;;;2.22;1.92;;;11.60;99.90;;;;;;5029875;28;20104;-74
2021/05/14 02:06:23;;;;;;;2.00;1.80;;;11.50;99.90;;;;;;5030324;28;20223;-75
2021/05/14 02:08:50;;;;;;;2.63;2.10;;;11.60;99.90;;;;;;5031074;28;20094;-74
2021/05/14 02:11:16;;;;;;;2.45;2.25;;;11.60;99.90;;;;;;5032972;28;20037;-74
2021/05/14 02:13:42;;;;;;;2.50;2.30;;;11.60;99.90;;;;;;5027379;28;20025;-75
2021/05/14 02:16:09;;;;;;;2.83;2.53;;;11.50;99.90;;;;;;5031581;28;20029;-74
2021/05/14 02:18:36;;;;;;;2.72;2.45;;;11.50;99.90;;;;;;5027990;28;20052;-74
2021/05/14 02:21:02;;;;;;;2.83;2.63;;;11.50;99.90;;;;;;5032391;28;20175;-75
2021/05/14 02:23:28;;;;;;;3.92;3.00;;;11.50;99.90;;;;;;5025541;28;20041;-74
2021/05/14 02:25:55;;;;;;;4.13;3.45;;;11.60;99.90;;;;;;5030998;28;20029;-73
2021/05/14 02:28:22;;;;;;;2.97;2.78;;;11.50;99.90;;;;;;5024378;28;20025;-74
2021/05/14 02:30:48;;;;;;;3.28;2.97;;;11.60;99.90;;;;;;5029184;28;20061;-74
2021/05/14 02:33:13;;;;;;;3.58;3.20;;;11.60;99.90;;;;;;5021592;28;20688;-75
2021/05/14 02:35:39;;;;;;;3.78;3.47;;;11.60;99.90;;;;;;5028549;28;20037;-74
2021/05/14 02:38:05;;;;;;;3.83;3.40;;;11.50;99.90;;;;;;5027731;28;20032;-74
2021/05/14 02:40:38;;;;;;;3.25;2.97;;;11.60;99.90;;;;;;5035072;28;20022;-74
2021/05/14 02:43:03;;;;;;;3.78;3.00;;;11.60;99.90;;;;;;5035108;28;20050;-75
2021/05/14 02:45:29;;;;;;;3.40;2.47;;;11.50;99.90;;;;;;5030343;28;20029;-74
2021/05/14 02:47:55;;;;;;;2.97;2.67;;;11.60;99.90;;;;;;5033344;28;20029;-75
2021/05/14 02:50:21;;;;;;;2.50;2.30;;;11.60;99.90;;;;;;5016517;28;20029;-74
2021/05/14 02:52:47;;;;;;;3.05;2.75;;;11.60;99.90;;;;;;5030825;28;20033;-75
2021/05/14 02:55:13;;;;;;;4.82;2.95;;;11.60;99.90;;;;;;5032108;28;20056;-75
2021/05/14 02:57:38;;;;;;;3.88;3.05;;;11.70;99.90;;;;;;5032491;28;20030;-75
2021/05/14 03:00:07;;;;;;;4.00;2.80;;;11.60;99.90;;;;;;5028599;28;20109;-74
2021/05/14 03:02:33;;;;;;;2.83;2.58;;;11.70;99.90;;;;;;5026059;28;20108;-74
2021/05/14 03:04:59;;;;;;;4.13;3.30;;;11.60;99.90;;;;;;5028899;28;20067;-74
2021/05/14 03:07:24;;;;;;;3.42;2.88;;;11.60;99.90;;;;;;5033460;28;20021;-75
2021/05/14 03:09:50;;;;;;;3.08;2.78;;;11.60;99.90;;;;;;5036278;28;20064;-74
2021/05/14 03:12:16;;;;;;;3.45;3.00;;;11.60;99.90;;;;;;5033857;28;20029;-76
2021/05/14 03:14:41;;;;;;;3.70;3.38;;;11.70;99.90;;;;;;5037391;28;20030;-74
2021/05/14 03:17:07;;;;;;;3.85;3.40;;;11.60;99.90;;;;;;5037562;28;20036;-74
2021/05/14 03:19:33;;;;;;;3.42;3.13;;;11.60;99.90;;;;;;5033098;28;20017;-74
2021/05/14 03:22:01;;;;;;;4.55;3.00;;;11.60;99.90;;;;;;5033444;28;20071;-74
2021/05/14 03:24:27;;;;;;;3.63;3.17;;;11.60;99.90;;;;;;5026103;28;20546;-74
2021/05/14 03:26:53;;;;;;;4.20;3.80;;;11.50;99.90;;;;;;5026480;28;20022;-73
2021/05/14 03:29:20;;;;;;;3.45;3.15;;;11.50;99.90;;;;;;5038687;28;20025;-75
2021/05/14 03:31:46;;;;;;;4.10;3.60;;;11.50;99.90;;;;;;5035688;28;20026;-75
2021/05/14 03:34:12;;;;;;;4.55;3.90;;;11.50;99.90;;;;;;5035465;28;20036;-73
2021/05/14 03:36:38;;;;;;;4.88;4.47;;;11.50;99.90;;;;;;5032758;28;20560;-74
2021/05/14 03:39:08;;;;;;;3.90;3.50;;;11.60;99.90;;;;;;5033082;28;20029;-75
2021/05/14 03:41:46;;;;;;;4.40;4.00;;;11.50;99.90;;;;;;5031021;28;20037;-74
2021/05/14 03:44:11;;;;;;;5.63;4.38;;;11.50;99.90;;;;;;5029094;28;20139;-76
2021/05/14 03:46:38;;;;;;;3.97;3.60;;;11.50;99.90;;;;;;5035171;28;20136;-74
2021/05/14 03:49:04;;;;;;;5.10;4.60;;;11.60;99.90;;;;;;5029203;28;20021;-75
2021/05/14 03:51:30;;;;;;;5.50;4.10;;;11.60;99.90;;;;;;5032844;28;20071;-75
2021/05/14 03:53:56;;;;;;;6.30;4.60;;;11.60;99.90;;;;;;5028795;28;20033;-75
2021/05/14 03:56:21;;;;;;;4.70;4.30;;;11.60;99.90;;;;;;5023782;28;20035;-75
2021/05/14 03:58:47;;;;;;;4.53;4.13;;;11.50;99.90;;;;;;5030148;28;20127;-75
2021/05/14 04:01:20;;;;;;;5.13;4.72;;;11.60;99.90;;;;;;5022728;28;20021;-74
2021/05/14 04:03:46;;;;;;;4.93;4.38;;;11.60;99.90;;;;;;5034661;28;20036;-75
2021/05/14 04:06:11;;;;;;;4.68;4.07;;;11.60;99.90;;;;;;5032955;28;20029;-74
2021/05/14 04:08:37;;;;;;;4.50;4.10;;;11.60;99.90;;;;;;5013892;28;20036;-75
2021/05/14 04:16:13;;;;;;;4.22;3.83;;;11.60;99.90;;;;;;5032123;28;20035;-74
2021/05/14 04:18:39;;;;;;;3.00;2.80;;;11.50;99.90;;;;;;5032964;28;20391;-74
2021/05/14 04:21:06;;;;;;;3.20;2.90;;;11.50;99.90;;;;;;5026214;28;20034;-76
2021/05/14 04:23:32;;;;;;;2.78;2.58;;;11.50;99.90;;;;;;5029762;28;20472;-74
2021/05/14 04:25:58;;;;;;;2.80;2.33;;;11.50;99.90;;;;;;5033427;28;20037;-74
2021/05/14 04:28:24;;;;;;;3.55;2.80;;;11.50;99.90;;;;;;5024886;28;20044;-75
2021/05/14 04:30:50;;;;;;;2.95;2.10;;;11.50;99.90;;;;;;5022781;28;20045;-75
2021/05/14 04:33:15;;;;;;;2.85;2.40;;;11.60;99.90;;;;;;5019585;23;20058;-75
2021/05/14 04:35:41;;;;;;;4.35;3.00;;;11.60;99.90;;;;;;5011208;28;20018;-74
2021/05/14 04:38:07;;;;;;;2.72;2.50;;;11.60;99.90;;;;;;5007490;28;20061;-75
2021/05/14 04:40:36;;;;;;;4.38;3.00;;;;;;;;;;5008220;28;20037;-75
2021/05/14 04:43:03;;;;;;;2.80;2.28;;;11.60;99.90;;;;;;5006223;28;20026;-75
2021/05/14 04:45:29;;;;;;;2.72;2.20;;;11.60;99.90;;;;;;5013855;28;20075;-76
2021/05/14 04:47:55;;;;;;;2.60;2.40;;;11.60;99.90;;;;;;5007815;28;20026;-75
2021/05/14 04:50:21;;;;;;;2.72;2.25;;;11.70;99.90;;;;;;5006612;28;20041;-75
2021/05/14 04:52:47;;;;;;;2.83;2.05;;;11.60;99.90;;;;;;5010655;28;20021;-76
2021/05/14 04:55:13;;;;;;;2.40;2.20;;;11.60;99.90;;;;;;5011562;28;20117;-76
2021/05/14 04:57:39;;;;;;;2.42;2.13;;;11.70;99.90;;;;;;5013608;28;20080;-75
2021/05/14 05:00:06;;;;;;;2.97;2.25;;;11.70;99.90;;;;;;5014738;28;20408;-76
2021/05/14 05:02:32;;;;;;;3.38;2.58;;;11.60;99.90;;;;;;5012591;28;20066;-75
2021/05/14 05:04:58;;;;;;;2.55;2.35;;;11.60;99.90;;;;;;5008979;28;20025;-75
2021/05/14 05:07:30;;;;;;;2.63;2.40;;;11.60;99.90;;;;;;5011210;28;20060;-76
2021/05/14 05:09:55;;;;;;;4.65;2.80;;;11.60;99.90;;;;;;5010831;28;20034;-74
2021/05/14 05:12:21;;;;;;;3.10;2.80;;;11.60;99.90;;;;;;5009983;28;20076;-79
2021/05/14 05:14:47;;;;;;;2.92;2.63;;;11.60;99.90;;;;;;5017696;28;20056;-80
2021/05/14 05:17:13;;;;;;;3.33;2.90;;;11.70;99.90;;;;;;5015512;28;20030;-80
2021/05/14 05:19:39;;;;;;;4.03;2.92;;;11.60;99.90;;;;;;5015213;28;20025;-81
2021/05/14 05:22:05;;;;;;;2.67;2.45;;;11.60;99.90;;;;;;5018043;28;20030;-79
2021/05/14 05:24:30;;;;;;;3.75;2.60;;;11.60;99.90;;;;;;5016869;28;20399;-79
2021/05/14 05:26:56;;;;;;;4.43;2.53;;;11.60;99.90;;;;;;5011256;28;20050;-79
2021/05/14 05:29:21;;;;;;;2.90;2.40;;;11.50;99.90;;;;;;5014613;28;20100;-77
2021/05/14 05:31:47;;;;;;;3.15;2.63;;;11.40;99.90;;;;;;5004335;28;20022;-78
2021/05/14 05:34:13;;;;;;;2.63;2.25;;;11.50;99.90;;;;;;5001436;28;20046;-77
2021/05/14 05:36:38;;;;;;;2.88;2.28;;;11.50;99.90;;;;;;4994764;28;20048;-77
2021/05/14 05:39:04;;;;;;;3.17;2.38;;;11.60;99.90;;;;;;5000878;28;20053;-77
2021/05/14 05:41:30;;;;;;;2.75;2.50;;;11.60;99.90;;;;;;4999812;28;20021;-78
2021/05/14 05:43:56;;;;;;;3.15;2.40;;;11.70;99.90;;;;;;4999316;28;20096;-77
2021/05/14 05:46:22;;;;;;;2.83;2.38;;;11.70;99.90;;;;;;4999738;28;20243;-77
2021/05/14 05:48:49;;;;;;;2.65;2.33;;;11.70;99.90;;;;;;4987920;28;20034;-78
2021/05/14 05:51:15;;;;;;;2.45;2.13;;;11.60;99.90;;;;;;5006320;28;20109;-77
2021/05/14 05:53:42;;;;;;;2.60;2.40;;;11.60;99.90;;;;;;5008265;28;20037;-78
2021/05/14 05:56:08;;;;;;;3.40;1.98;;;11.70;99.90;;;;;;5010941;28;20524;-78
2021/05/14 05:58:35;;;;;;;2.90;2.08;;;11.80;99.90;;;;;;5012592;28;20060;-77
2021/05/14 06:01:00;;;;;;;2.85;2.55;;;11.80;99.90;;;;;;5013398;28;20038;-78
2021/05/14 06:03:32;;;;;;;2.97;2.20;;;11.80;99.90;;;;;;5002995;28;20050;-79
2021/05/14 06:05:57;;;;;;;3.97;2.25;;;11.70;99.90;;;;;;5011741;28;20026;-78
2021/05/14 06:08:24;;;;;;;3.65;2.97;;;11.70;99.90;;;;;;5011029;28;20045;-79
2021/05/14 06:10:52;;;;;;;3.22;2.92;;;11.70;99.90;;;;;;5019535;28;20022;-77
2021/05/14 06:16:02;;;;;;;5.95;3.90;;;;;;;;;;5813684;23;20048;-83
2021/05/14 06:21:04;;;;;;;3.80;3.30;;;11.70;99.90;;;;;;5381340;23;20050;-77
2021/05/14 06:23:30;;;;;;;3.70;3.40;;;11.80;99.90;;;;;;5016368;28;20038;-77
2021/05/14 06:25:55;;;;;;;4.32;3.47;;;11.70;99.90;;;;;;5025507;28;20365;-76
2021/05/14 06:28:21;;;;;;;6.47;3.97;;;11.80;99.90;;;;;;5020253;28;20157;-77
2021/05/14 06:30:48;;;;;;;4.63;4.20;;;11.80;99.90;;;;;;5024369;28;20048;-76
2021/05/14 06:33:14;;;;;;;6.15;4.70;;;11.80;99.90;;;;;;5020157;28;20025;-78
2021/05/14 06:35:40;;;;;;;6.38;5.57;;;11.80;99.90;;;;;;5024784;28;20083;-77
2021/05/14 06:38:07;;;;;;;6.93;5.80;;;11.80;99.90;;;;;;5025924;28;20029;-76
2021/05/14 06:40:33;;;;;;;8.25;5.97;;;11.80;99.90;;;;;;5016761;28;20480;-77
2021/05/14 06:42:59;;;;;;;5.95;5.35;;;11.80;99.90;;;;;;5000392;28;20532;-77
2021/05/14 06:45:25;;;;;;;7.47;5.60;;;11.80;99.90;;;;;;5024369;28;20052;-78
2021/05/14 06:47:52;;;;;;;6.78;5.60;;;11.80;99.90;;;;;;5025687;28;20044;-78
2021/05/14 06:50:18;;;;;;;5.78;5.25;;;11.90;99.90;;;;;;5023381;28;20076;-74
2021/05/14 06:52:43;;;;;;;5.70;5.00;;;11.70;99.90;;;;;;5034168;28;20475;-79
2021/05/14 06:55:10;;;;;;;5.25;3.95;;;11.70;99.90;;;;;;5023129;28;20072;-78
2021/05/14 06:57:37;;;;;;;4.78;3.90;;;11.70;99.90;;;;;;5021335;28;20033;-77
2021/05/14 07:00:05;;;;;;;5.18;4.05;;;11.70;99.90;;;;;;5031039;28;20427;-79
2021/05/14 07:02:30;;;;;;;6.90;5.13;;;11.70;99.90;;;;;;5022022;28;20475;-79
2021/05/14 07:04:56;;;;;;;4.65;3.08;;;11.80;99.90;;;;;;5017307;28;20044;-79
2021/05/14 07:07:21;;;;;;;5.45;3.92;;;11.90;99.90;;;;;;5022131;28;20117;-78
2021/05/14 07:09:47;;;;;;;4.88;3.55;;;12.00;99.90;;;;;;5023452;28;20080;-79
2021/05/14 07:12:13;;;;;;;9.45;5.75;;;12.10;99.90;;;;;;5030164;28;20145;-79
2021/05/14 07:14:39;;;;;;;4.90;3.63;;;12.10;99.90;;;;;;5032721;28;20052;-78
2021/05/14 07:17:05;;;;;;;5.68;4.55;;;12.00;99.90;;;;;;5037478;28;20025;-79
2021/05/14 07:19:31;;;;;;;6.03;4.18;;;12.20;99.90;;;;;;5045739;28;20025;-79
2021/05/14 07:21:56;;;;;;;5.88;3.70;;;12.00;99.90;;;;;;5035862;28;20030;-79
2021/05/14 07:24:22;;;;;;;4.60;3.55;;;12.00;99.90;;;;;;5028988;28;20029;-79
2021/05/14 07:26:48;;;;;;;4.85;3.40;;;;;;;;;;5026361;28;20108;-80
2021/05/14 07:42:12;;;;;;;3.33;2.22;;;;;;;;;;6111113;22;20071;-79
2021/05/14 07:44:39;;;;;;;2.92;2.33;;;11.80;99.90;;;;;;5329550;22;20046;-80
2021/05/14 08:02:44;;;;;;;6.30;3.22;;;;;;;;;;5990036;22;20573;-82
2021/05/14 08:10:24;;;;;;;5.57;4.03;;;;;;;;;;5816659;22;20057;-83
2021/05/14 08:12:52;;;;;;;5.90;3.30;;;;;;;;;;5060269;28;20037;-83
2021/05/14 08:20:32;;;;;;;3.83;3.28;;;;;;;;;;5575109;22;20441;-82
2021/05/14 08:22:58;;;;;;;156.00;106.38;;;11.90;99.90;;;;;;4994292;28;20027;-80
2021/05/14 08:25:25;;;;;;;68.97;47.92;;;12.00;99.90;;;;;;4990646;28;20034;-81
2021/05/14 08:27:51;;;;;;;3.83;2.92;;;12.00;99.90;;;;;;5011298;28;20047;-82
2021/05/14 08:30:17;;;;;;;4.65;3.65;;;12.10;99.90;;;;;;5014968;28;20038;-81
2021/05/14 08:32:43;;;;;;;3.05;2.38;;;12.10;99.90;;;;;;5007762;28;20038;-81
2021/05/14 08:35:10;;;;;;;3.67;3.05;;;;;;;;;;5128975;23;20056;-81
2021/05/14 08:40:15;;;;;;;4.25;3.50;;;;;;;;;;5044419;22;19905;-81
2021/05/14 08:42:41;;;;;;;4.68;2.78;;;12.10;99.90;;;;;;5057652;28;20049;-80
2021/05/14 08:45:12;;;;;;;4.18;3.78;;;12.10;99.90;;;;;;5050596;28;20018;-81
2021/05/14 08:47:39;;;;;;;4.20;2.63;;;12.20;99.90;;;;;;5038017;28;20018;-80
2021/05/14 08:50:09;;;;;;;4.93;3.10;;;12.10;99.90;;;;;;5101886;22;20050;-82
2021/05/14 08:52:39;;;;;;;5.65;4.40;;;12.00;99.90;;;;;;5074484;28;20056;-81
2021/05/14 08:55:07;;;;;;;7.88;4.90;;;12.00;99.90;;;;;;5070719;28;20088;-81
2021/05/14 08:57:36;;;;;;;4.82;3.53;;;;;;;;;;5072228;28;20029;-81
2021/05/14 09:00:05;;;;;;;6.03;3.80;;;;;;;;;;5071789;28;20041;-82
2021/05/14 09:02:33;;;;;;;7.22;4.65;;;11.70;99.90;;;;;;5062305;28;20140;-80
2021/05/14 09:05:20;;;;;;;3.80;2.70;;;11.80;99.90;;;;;;5066641;28;20029;-81
2021/05/14 09:07:46;;;;;;;6.43;4.03;;;;;;;;;;5057943;28;20505;-80
2021/05/14 09:10:13;;;;;;;6.53;4.15;;;;;;;;;;5066179;28;20087;-82
2021/05/14 09:12:42;;;;;;;6.28;3.85;;;;;;;;;;5066012;28;20025;-82
2021/05/14 09:15:21;;;;;;;7.53;3.78;;;;;;;;;;5055289;28;20032;-82
2021/05/14 09:18:11;;;;;;;4.15;3.25;;;11.70;99.90;;;;;;5058980;28;20026;-81
2021/05/14 09:20:53;;;;;;;4.40;3.28;;;11.70;99.90;;;;;;5056343;28;20025;-81
2021/05/14 09:23:19;;;;;;;4.80;3.55;;;;;;;;;;5058942;28;20029;-82
2021/05/14 09:26:02;;;;;;;4.13;3.22;;;11.80;99.90;;;;;;5053540;28;20018;-81
2021/05/14 09:28:37;;;;;;;6.13;3.95;;;11.90;99.90;;;;;;5050652;28;20029;-80
2021/05/14 09:31:20;;;;;;;4.70;3.00;;;12.10;99.90;;;;;;5053055;28;20033;-81
2021/05/14 09:33:47;;;;;;;5.30;3.38;;;12.00;99.90;;;;;;5033555;28;20065;-81
2021/05/14 09:36:19;;;;;;;5.03;3.83;;;12.10;99.90;;;;;;5023622;28;20022;-80
2021/05/14 09:39:08;;;;;;;7.20;3.38;;;12.20;99.90;;;;;;5018691;28;20023;-81
2021/05/14 09:41:40;;;;;;;2.40;1.77;;;12.20;99.90;;;;;;5030282;28;20156;-81
2021/05/14 09:44:09;;;;;;;7.72;3.88;;;12.10;99.90;;;;;;5032921;28;20029;-81
2021/05/14 09:46:40;;;;;;;6.07;4.15;;;12.00;99.90;;;;;;5029319;28;20025;-80
2021/05/14 09:49:24;;;;;;;;;;;12.10;99.90;;;;;;5037731;28;20045;-80
2021/05/14 09:51:54;;;;;;;2.70;2.08;;;11.90;99.90;;;;;;5032900;28;19963;-79
2021/05/14 09:54:30;;;;;;;5.15;3.33;;;11.70;99.90;;;;;;5031954;28;20068;-81
2021/05/14 09:59:51;;;;;;;4.72;2.55;;;11.80;99.90;;;;;;5047529;28;20045;-79
2021/05/14 10:02:24;;;;;;;4.65;2.30;;;11.90;99.90;;;;;;5039186;28;20052;-80
2021/05/14 10:04:51;;;;;;;5.78;3.15;;;12.00;99.90;;;;;;5033454;28;20026;-80
2021/05/14 10:07:18;;;;;;;3.70;2.55;;;12.10;99.90;;;;;;5030120;28;20026;-80
2021/05/14 10:09:50;;;;;;;3.35;2.13;;;12.20;99.90;;;;;;5036759;28;20022;-81
2021/05/14 10:12:18;;;;;;;5.38;3.35;;;12.30;99.90;;;;;;5037638;28;20373;-80
2021/05/14 10:14:45;;;;;;;5.97;3.40;;;12.80;99.90;;;;;;5034505;28;20053;-80
2021/05/14 10:17:10;;;;;;;4.57;2.78;;;12.90;99.90;;;;;;5032518;28;20026;-81
2021/05/14 10:19:40;;;;;;;9.13;6.55;;;13.10;99.90;;;;;;5033040;28;20036;-80
2021/05/14 10:22:07;;;;;;;6.75;5.15;;;13.10;99.90;;;;;;5027496;28;20029;-80
2021/05/14 10:24:46;;;;;;;7.25;4.15;;;13.10;99.90;;;;;;5035639;28;20029;-79
2021/05/14 10:27:23;;;;;;;4.07;2.78;;;13.20;99.90;;;;;;5030722;28;20526;-82
2021/05/14 10:29:52;;;;;;;4.70;3.13;;;13.20;99.90;;;;;;5030666;28;20503;-79
2021/05/14 10:32:43;;;;;;;9.30;6.57;;;13.20;99.90;;;;;;5021836;28;20101;-80
2021/05/14 10:35:11;;;;;;;4.38;2.95;;;13.30;99.90;;;;;;5020531;28;20022;-81
2021/05/14 10:37:50;;;;;;;6.38;2.78;;;12.90;99.90;;;;;;5034347;28;20034;-81
2021/05/14 10:40:28;;;;;;;2.05;1.73;;;13.10;99.90;;;;;;5038249;28;20032;-81
2021/05/14 10:42:57;;;;;;;3.00;1.67;;;13.00;99.90;;;;;;5041457;28;20038;-82
2021/05/14 10:45:45;;;;;;;3.03;1.77;;;12.90;99.90;;;;;;5050279;28;20025;-82
2021/05/14 10:48:20;;;;;;;3.25;1.73;;;13.80;99.90;;;;;;5021292;28;20024;-81
2021/05/14 10:50:56;;;;;;;5.53;1.80;;;13.80;99.90;;;;;;5038784;28;20038;-82
2021/05/14 12:29:27;;;;;;;3.15;1.67;;;;;;;;;;5078408;23;19933;-82
2021/05/14 12:31:58;;;;;;;3.63;2.33;;;14.10;99.90;;;;;;5072554;23;20133;-83
2021/05/14 12:34:28;;;;;;;7.90;2.38;;;;;;;;;;4997771;28;20030;-81
2021/05/14 12:36:58;;;;;;;2.67;1.63;;;14.70;99.90;;;;;;4995647;28;20027;-80
2021/05/14 12:39:31;;;;;;;1.40;1.10;;;15.00;99.90;;;;;;4985065;28;20046;-82
2021/05/14 12:42:01;;;;;;;2.70;1.52;;;;;;;;;;4980641;28;20018;-81
2021/05/14 12:44:32;;;;;;;4.47;2.40;;;;;;;;;;5327202;23;21037;-80
2021/05/14 12:47:07;;;;;;;3.65;1.85;;;;;;;;;;4994823;28;20063;-80
2021/05/14 12:49:49;;;;;;;3.53;1.60;;;14.50;99.90;;;;;;4991267;28;20035;-80
2021/05/14 12:52:28;;;;;;;2.85;1.95;;;14.40;99.90;;;;;;4974946;28;20038;-81
2021/05/14 12:54:54;;;;;;;2.47;1.67;;;14.30;99.90;;;;;;4993784;28;20114;-82
2021/05/14 12:57:33;;;;;;;3.67;2.03;;;14.40;99.90;;;;;;4995005;28;20046;-81
2021/05/14 13:00:17;;;;;;;2.40;1.60;;;14.60;99.90;;;;;;4993988;28;20062;-81
2021/05/14 13:03:07;;;;;;;3.70;1.63;;;14.40;99.90;;;;;;4987115;28;20027;-80
2021/05/14 13:05:40;;;;;;;3.83;2.10;;;14.30;99.90;;;;;;4999369;28;20042;-83
2021/05/14 13:10:45;;;;;;;2.67;1.90;;;;;;;;;;5434093;23;20058;-81
2021/05/14 13:13:13;;;;;;;2.45;1.50;;;14.30;99.90;;;;;;5032609;28;20006;-80
2021/05/14 13:15:48;;;;;;;3.75;2.10;;;;;;;;;;5034622;28;20022;-79
2021/05/14 13:18:34;;;;;;;2.70;2.30;;;14.10;99.90;;;;;;5034315;28;20030;-81
2021/05/14 13:21:12;;;;;;;4.20;1.95;;;14.30;99.90;;;;;;5034666;28;20033;-82
2021/05/14 13:23:42;;;;;;;3.63;1.98;;;;;;;;;;5034804;28;20038;-81
2021/05/14 13:26:10;;;;;;;2.60;1.30;;;14.50;99.90;;;;;;5034440;28;20092;-80
2021/05/14 13:28:36;;;;;;;2.60;1.55;;;;;;;;;;5034663;28;20041;-80
2021/05/14 13:31:03;;;;;;;5.30;2.35;;;;;;;;;;5036216;28;20087;-81
2021/05/14 13:33:33;;;;;;;4.63;1.80;;;;;;;;;;5020937;28;20030;-81
2021/05/14 13:36:00;;;;;;;2.78;1.70;;;;;;;;;;5013373;28;20014;-81
2021/05/14 13:38:30;;;;;;;2.28;1.45;;;;;;;;;;5014579;28;20102;-81
2021/05/14 13:40:57;;;;;;;3.42;1.55;;;;;;;;;;5016841;28;20033;-81
2021/05/14 13:43:24;;;;;;;1.98;1.48;;;14.00;99.90;;;;;;5018048;28;20041;-82
2021/05/14 13:45:51;;;;;;;2.72;1.70;;;;;;;;;;5018885;28;20050;-82
2021/05/14 13:48:22;;;;;;;1.90;1.45;;;;;;;;;;5017839;28;20030;-82
2021/05/14 13:50:51;;;;;;;3.20;1.50;;;14.40;99.90;;;;;;5017824;28;20030;-81
2021/05/14 13:53:26;;;;;;;2.53;1.50;;;14.80;99.90;;;;;;5013120;28;20030;-80
2021/05/14 13:55:59;;;;;;;3.22;1.75;;;14.90;99.90;;;;;;5015746;28;20023;-81
2021/05/14 13:58:26;;;;;;;2.92;1.55;;;;;;;;;;5016756;28;20023;-80
2021/05/14 14:00:54;;;;;;;3.60;1.70;;;;;;;;;;5013743;28;20035;-81
2021/05/14 14:03:24;;;;;;;2.72;1.40;;;;;;;;;;5013513;28;20034;-80
2021/05/14 14:05:50;;;;;;;3.00;1.50;;;;;;;;;;5010430;28;20371;-80
2021/05/14 14:08:17;;;;;;;2.92;1.90;;;;;;;;;;5010583;28;20041;-80
2021/05/14 14:10:46;;;;;;;2.78;1.67;;;;;;;;;;5009714;28;20050;-80
2021/05/14 14:13:15;;;;;;;5.05;3.28;;;;;;;;;;5010639;28;20061;-81
2021/05/14 14:15:43;;;;;;;4.97;3.05;;;;;;;;;;5012978;28;20049;-81
2021/05/14 14:18:10;;;;;;;4.03;1.92;;;;;;;;;;5008074;28;20030;-81
2021/05/14 14:20:36;;;;;;;4.25;2.15;;;;;;;;;;5007727;28;20056;-80
2021/05/14 14:23:02;;;;;;;4.07;1.77;;;;;;;;;;5007350;28;20038;-80
2021/05/14 14:25:28;;;;;;;3.40;1.83;;;13.90;99.90;;;;;;5013183;28;20038;-81
2021/05/14 14:27:54;;;;;;;2.33;1.73;;;;;;;;;;5011301;28;20041;-80
2021/05/14 14:30:20;;;;;;;2.70;1.70;;;;;;;;;;4996134;28;20035;-80
2021/05/14 14:32:49;;;;;;;3.42;2.03;;;;;;;;;;5010184;28;20033;-81
2021/05/14 14:35:15;;;;;;;4.43;1.90;;;14.30;99.90;;;;;;5034205;23;20151;-79
2021/05/14 14:53:13;;;;;;;2.75;1.63;;;14.20;99.90;;;;;;5882483;23;20083;-78
2021/05/14 14:55:39;;;;;;;2.05;1.63;;;14.20;99.90;;;;;;4986575;28;20046;-78
2021/05/14 14:58:04;;;;;;;2.70;1.70;;;14.50;99.90;;;;;;4987096;28;20034;-79
2021/05/14 15:00:30;;;;;;;3.45;1.80;;;14.90;99.90;;;;;;4988074;28;20060;-80
2021/05/14 15:02:56;;;;;;;2.40;1.63;;;15.20;99.90;;;;;;4994625;28;20089;-79
2021/05/14 15:05:22;;;;;;;3.35;1.70;;;15.10;99.90;;;;;;4994230;28;20043;-78
2021/05/14 15:07:48;;;;;;;3.67;1.70;;;15.20;99.90;;;;;;4984626;28;20106;-79
2021/05/14 15:10:14;;;;;;;3.05;1.50;;;15.00;99.90;;;;;;4974581;28;20038;-79
2021/05/14 15:12:40;;;;;;;2.72;1.40;;;15.20;99.90;;;;;;4978508;28;20077;-78
2021/05/14 15:15:06;;;;;;;3.67;1.52;;;15.00;99.90;;;;;;4983059;28;20035;-79
2021/05/14 15:17:32;;;;;;;3.17;1.13;;;15.20;99.90;;;;;;4977176;28;20038;-78
2021/05/14 15:19:58;;;;;;;2.88;1.45;;;14.90;99.90;;;;;;4977788;28;20018;-79
2021/05/14 15:22:24;;;;;;;2.55;1.50;;;14.90;99.90;;;;;;4984571;28;20050;-78
2021/05/14 15:24:49;;;;;;;2.80;2.10;;;14.50;99.90;;;;;;4992022;28;20023;-77
2021/05/14 15:27:15;;;;;;;2.50;1.50;;;14.80;99.90;;;;;;4985354;28;20023;-78
2021/05/14 15:29:45;;;;;;;1.98;1.58;;;14.80;99.90;;;;;;4980588;28;20026;-78
2021/05/14 15:32:11;;;;;;;2.22;1.25;;;14.80;99.90;;;;;;4983742;28;20027;-78
2021/05/14 15:34:36;;;;;;;2.90;1.55;;;14.70;99.90;;;;;;4981019;28;20022;-77
2021/05/14 15:37:03;;;;;;;4.00;1.42;;;14.60;99.90;;;;;;4980436;28;20041;-78
2021/05/14 15:39:30;;;;;;;2.47;1.23;;;14.50;99.90;;;;;;4981145;28;20038;-78
2021/05/14 15:41:58;;;;;;;2.55;1.50;;;14.50;99.90;;;;;;4983498;28;20054;-77
2021/05/14 15:44:27;;;;;;;2.35;1.45;;;14.50;99.90;;;;;;4983174;28;20038;-77
2021/05/14 15:46:53;;;;;;;1.65;1.13;;;14.20;99.90;;;;;;4983341;28;20023;-79
2021/05/14 15:49:18;;;;;;;3.03;1.25;;;14.10;99.90;;;;;;4983659;28;20053;-79
2021/05/14 15:51:44;;;;;;;1.55;1.08;;;14.10;99.90;;;;;;4985617;28;20038;-78
2021/05/14 15:54:10;;;;;;;4.32;1.80;;;14.20;99.90;;;;;;4986609;28;20046;-79
2021/05/14 15:56:35;;;;;;;2.20;1.10;;;14.00;99.90;;;;;;4983468;28;20034;-79